sensor_id;sensor_type;location;lat;lon;timestamp;P1;durP1;ratioP1;P2;durP2;ratioP2
14768;SDS011;7476;49.404;11.152;2023-03-20T00:01:09;3.83;;;3.43;;
14768;SDS011;7476;49.404;11.152;2023-03-20T00:03:38;3.60;;;3.27;;
14768;SDS011;7476;49.404;11.152;2023-03-20T00:06:07;5.03;;;3.23;;
14768;SDS011;7476;49.404;11.152;2023-03-20T00:08:38;5.73;;;3.40;;
14768;SDS011;7476;49.404;11.152;2023-03-20T00:11:16;3.83;;;3.47;;
14768;SDS011;7476;49.404;11.152;2023-03-20T00:13:54;3.53;;;3.23;;
14768;SDS011;7476;49.404;11.152;2023-03-20T00:16:23;4.93;;;3.13;;
14768;SDS011;7476;49.404;11.152;2023-03-20T00:18:52;3.83;;;3.43;;
14768;SDS011;7476;49.404;11.152;2023-03-20T00:21:20;5.00;;;3.30;;
14768;SDS011;7476;49.404;11.152;2023-03-20T00:23:47;3.67;;;3.37;;
14768;SDS011;7476;49.404;11.152;2023-03-20T00:26:14;4.17;;;3.30;;
14768;SDS011;7476;49.404;11.152;2023-03-20T00:28:45;4.20;;;3.80;;
14768;SDS011;7476;49.404;11.152;2023-03-20T00:31:14;3.70;;;3.40;;
14768;SDS011;7476;49.404;11.152;2023-03-20T00:33:46;5.90;;;3.80;;
14768;SDS011;7476;49.404;11.152;2023-03-20T00:36:13;4.30;;;3.77;;
14768;SDS011;7476;49.404;11.152;2023-03-20T00:38:40;3.80;;;3.47;;
14768;SDS011;7476;49.404;11.152;2023-03-20T00:41:11;4.53;;;3.47;;
14768;SDS011;7476;49.404;11.152;2023-03-20T00:43:49;6.23;;;4.03;;
14768;SDS011;7476;49.404;11.152;2023-03-20T00:46:18;3.70;;;3.40;;
14768;SDS011;7476;49.404;11.152;2023-03-20T00:48:45;4.30;;;3.63;;
14768;SDS011;7476;49.404;11.152;2023-03-20T00:51:12;5.20;;;3.80;;
14768;SDS011;7476;49.404;11.152;2023-03-20T00:53:40;4.47;;;3.50;;
14768;SDS011;7476;49.404;11.152;2023-03-20T00:56:08;4.07;;;3.67;;
14768;SDS011;7476;49.404;11.152;2023-03-20T00:58:55;5.17;;;4.23;;
14768;SDS011;7476;49.404;11.152;2023-03-20T01:01:22;5.03;;;4.53;;
14768;SDS011;7476;49.404;11.152;2023-03-20T01:03:49;5.10;;;4.10;;
14768;SDS011;7476;49.404;11.152;2023-03-20T01:06:15;4.27;;;3.87;;
14768;SDS011;7476;49.404;11.152;2023-03-20T01:08:43;4.50;;;3.60;;
14768;SDS011;7476;49.404;11.152;2023-03-20T01:11:10;4.03;;;3.63;;
14768;SDS011;7476;49.404;11.152;2023-03-20T01:13:38;4.63;;;3.30;;
14768;SDS011;7476;49.404;11.152;2023-03-20T01:16:12;5.03;;;3.40;;
14768;SDS011;7476;49.404;11.152;2023-03-20T01:18:44;4.33;;;3.93;;
14768;SDS011;7476;49.404;11.152;2023-03-20T01:21:11;4.20;;;3.80;;
14768;SDS011;7476;49.404;11.152;2023-03-20T01:23:38;4.43;;;3.90;;
14768;SDS011;7476;49.404;11.152;2023-03-20T01:26:05;4.60;;;4.10;;
14768;SDS011;7476;49.404;11.152;2023-03-20T01:28:43;4.87;;;4.43;;
14768;SDS011;7476;49.404;11.152;2023-03-20T01:31:11;4.90;;;4.50;;
14768;SDS011;7476;49.404;11.152;2023-03-20T01:33:39;7.03;;;3.73;;
14768;SDS011;7476;49.404;11.152;2023-03-20T01:36:08;4.97;;;3.63;;
14768;SDS011;7476;49.404;11.152;2023-03-20T01:38:35;4.30;;;3.73;;
14768;SDS011;7476;49.404;11.152;2023-03-20T01:41:04;4.33;;;3.93;;
14768;SDS011;7476;49.404;11.152;2023-03-20T01:43:33;4.33;;;3.93;;
14768;SDS011;7476;49.404;11.152;2023-03-20T01:46:00;4.70;;;4.10;;
14768;SDS011;7476;49.404;11.152;2023-03-20T01:51:26;5.50;;;4.17;;
14768;SDS011;7476;49.404;11.152;2023-03-20T01:53:56;4.70;;;4.10;;
14768;SDS011;7476;49.404;11.152;2023-03-20T01:56:25;4.73;;;3.63;;
14768;SDS011;7476;49.404;11.152;2023-03-20T01:58:56;4.20;;;3.80;;
14768;SDS011;7476;49.404;11.152;2023-03-20T02:01:25;4.80;;;4.30;;
14768;SDS011;7476;49.404;11.152;2023-03-20T02:03:53;4.20;;;3.80;;
14768;SDS011;7476;49.404;11.152;2023-03-20T02:06:23;5.60;;;4.17;;
14768;SDS011;7476;49.404;11.152;2023-03-20T02:08:51;5.10;;;4.23;;
14768;SDS011;7476;49.404;11.152;2023-03-20T02:11:19;5.30;;;3.93;;
14768;SDS011;7476;49.404;11.152;2023-03-20T02:13:48;4.47;;;4.07;;
14768;SDS011;7476;49.404;11.152;2023-03-20T02:16:17;5.87;;;4.53;;
14768;SDS011;7476;49.404;11.152;2023-03-20T02:18:45;5.53;;;4.37;;
14768;SDS011;7476;49.404;11.152;2023-03-20T02:24:38;5.20;;;4.03;;
14768;SDS011;7476;49.404;11.152;2023-03-20T02:27:22;4.80;;;4.30;;
14768;SDS011;7476;49.404;11.152;2023-03-20T02:30:08;4.80;;;4.40;;
14768;SDS011;7476;49.404;11.152;2023-03-20T02:33:11;5.03;;;4.30;;
14768;SDS011;7476;49.404;11.152;2023-03-20T02:36:08;6.03;;;4.80;;
14768;SDS011;7476;49.404;11.152;2023-03-20T02:38:59;4.77;;;4.30;;
14768;SDS011;7476;49.404;11.152;2023-03-20T02:41:36;4.67;;;4.17;;
14768;SDS011;7476;49.404;11.152;2023-03-20T02:44:08;4.90;;;4.20;;
14768;SDS011;7476;49.404;11.152;2023-03-20T02:46:45;4.63;;;4.23;;
14768;SDS011;7476;49.404;11.152;2023-03-20T02:49:23;4.63;;;3.80;;
14768;SDS011;7476;49.404;11.152;2023-03-20T02:52:03;5.00;;;4.07;;
14768;SDS011;7476;49.404;11.152;2023-03-20T02:54:42;5.60;;;4.17;;
14768;SDS011;7476;49.404;11.152;2023-03-20T02:57:15;6.00;;;4.47;;
14768;SDS011;7476;49.404;11.152;2023-03-20T02:59:46;5.90;;;4.77;;
14768;SDS011;7476;49.404;11.152;2023-03-20T03:02:21;4.70;;;4.27;;
14768;SDS011;7476;49.404;11.152;2023-03-20T03:04:53;5.43;;;4.57;;
14768;SDS011;7476;49.404;11.152;2023-03-20T03:07:25;4.97;;;4.50;;
14768;SDS011;7476;49.404;11.152;2023-03-20T03:09:58;4.70;;;4.10;;
14768;SDS011;7476;49.404;11.152;2023-03-20T03:12:29;4.80;;;4.40;;
14768;SDS011;7476;49.404;11.152;2023-03-20T03:15:00;7.37;;;5.10;;
14768;SDS011;7476;49.404;11.152;2023-03-20T03:17:29;4.93;;;4.30;;
14768;SDS011;7476;49.404;11.152;2023-03-20T03:20:00;4.97;;;4.47;;
14768;SDS011;7476;49.404;11.152;2023-03-20T03:22:30;4.57;;;4.17;;
14768;SDS011;7476;49.404;11.152;2023-03-20T03:25:00;4.87;;;4.37;;
14768;SDS011;7476;49.404;11.152;2023-03-20T03:27:27;5.43;;;4.70;;
14768;SDS011;7476;49.404;11.152;2023-03-20T03:30:01;5.50;;;4.70;;
14768;SDS011;7476;49.404;11.152;2023-03-20T03:32:31;4.70;;;4.20;;
14768;SDS011;7476;49.404;11.152;2023-03-20T03:35:00;4.87;;;4.27;;
14768;SDS011;7476;49.404;11.152;2023-03-20T03:37:35;5.30;;;4.73;;
14768;SDS011;7476;49.404;11.152;2023-03-20T03:40:12;6.93;;;4.80;;
14768;SDS011;7476;49.404;11.152;2023-03-20T03:42:47;5.27;;;4.00;;
14768;SDS011;7476;49.404;11.152;2023-03-20T03:45:22;4.70;;;4.30;;
14768;SDS011;7476;49.404;11.152;2023-03-20T03:47:54;5.40;;;4.30;;
14768;SDS011;7476;49.404;11.152;2023-03-20T03:50:27;5.00;;;4.50;;
14768;SDS011;7476;49.404;11.152;2023-03-20T03:52:56;6.20;;;4.70;;
14768;SDS011;7476;49.404;11.152;2023-03-20T03:55:30;5.50;;;4.30;;
14768;SDS011;7476;49.404;11.152;2023-03-20T03:58:03;5.53;;;4.97;;
14768;SDS011;7476;49.404;11.152;2023-03-20T04:00:35;5.10;;;4.70;;
14768;SDS011;7476;49.404;11.152;2023-03-20T04:03:04;4.70;;;4.30;;
14768;SDS011;7476;49.404;11.152;2023-03-20T04:05:33;5.67;;;5.07;;
14768;SDS011;7476;49.404;11.152;2023-03-20T04:08:02;7.53;;;5.20;;
14768;SDS011;7476;49.404;11.152;2023-03-20T04:10:32;5.40;;;4.90;;
14768;SDS011;7476;49.404;11.152;2023-03-20T04:13:00;6.00;;;5.37;;
14768;SDS011;7476;49.404;11.152;2023-03-20T04:15:26;6.27;;;5.67;;
14768;SDS011;7476;49.404;11.152;2023-03-20T04:17:53;6.17;;;5.07;;
14768;SDS011;7476;49.404;11.152;2023-03-20T04:20:20;5.87;;;5.07;;
14768;SDS011;7476;49.404;11.152;2023-03-20T04:22:46;6.53;;;5.67;;
14768;SDS011;7476;49.404;11.152;2023-03-20T04:25:15;6.00;;;5.50;;
14768;SDS011;7476;49.404;11.152;2023-03-20T04:27:44;6.50;;;5.53;;
14768;SDS011;7476;49.404;11.152;2023-03-20T04:30:11;5.70;;;5.10;;
14768;SDS011;7476;49.404;11.152;2023-03-20T04:32:38;8.60;;;6.20;;
14768;SDS011;7476;49.404;11.152;2023-03-20T04:35:05;9.47;;;5.87;;
14768;SDS011;7476;49.404;11.152;2023-03-20T04:37:33;6.40;;;5.80;;
14768;SDS011;7476;49.404;11.152;2023-03-20T04:39:59;8.43;;;7.30;;
14768;SDS011;7476;49.404;11.152;2023-03-20T04:42:26;8.43;;;7.53;;
14768;SDS011;7476;49.404;11.152;2023-03-20T04:44:54;8.73;;;6.93;;
14768;SDS011;7476;49.404;11.152;2023-03-20T04:47:21;8.23;;;7.03;;
14768;SDS011;7476;49.404;11.152;2023-03-20T04:49:47;8.93;;;7.93;;
14768;SDS011;7476;49.404;11.152;2023-03-20T04:52:14;8.30;;;7.17;;
14768;SDS011;7476;49.404;11.152;2023-03-20T04:54:41;9.77;;;7.97;;
14768;SDS011;7476;49.404;11.152;2023-03-20T04:57:07;8.17;;;7.37;;
14768;SDS011;7476;49.404;11.152;2023-03-20T04:59:34;9.63;;;8.57;;
14768;SDS011;7476;49.404;11.152;2023-03-20T05:02:02;9.23;;;7.97;;
14768;SDS011;7476;49.404;11.152;2023-03-20T05:04:29;8.47;;;7.30;;
14768;SDS011;7476;49.404;11.152;2023-03-20T05:06:55;7.83;;;6.97;;
14768;SDS011;7476;49.404;11.152;2023-03-20T05:09:22;8.53;;;7.17;;
14768;SDS011;7476;49.404;11.152;2023-03-20T05:11:49;8.00;;;6.73;;
14768;SDS011;7476;49.404;11.152;2023-03-20T05:14:15;10.50;;;7.77;;
14768;SDS011;7476;49.404;11.152;2023-03-20T05:16:42;8.43;;;7.20;;
14768;SDS011;7476;49.404;11.152;2023-03-20T05:19:10;8.83;;;7.30;;
14768;SDS011;7476;49.404;11.152;2023-03-20T05:21:37;8.07;;;7.27;;
14768;SDS011;7476;49.404;11.152;2023-03-20T05:24:04;8.20;;;7.40;;
14768;SDS011;7476;49.404;11.152;2023-03-20T05:26:31;9.43;;;7.87;;
14768;SDS011;7476;49.404;11.152;2023-03-20T05:28:57;10.17;;;8.67;;
14768;SDS011;7476;49.404;11.152;2023-03-20T05:31:24;12.43;;;9.93;;
14768;SDS011;7476;49.404;11.152;2023-03-20T05:33:51;10.93;;;9.43;;
14768;SDS011;7476;49.404;11.152;2023-03-20T05:36:19;11.10;;;9.17;;
14768;SDS011;7476;49.404;11.152;2023-03-20T05:38:45;10.50;;;9.17;;
14768;SDS011;7476;49.404;11.152;2023-03-20T05:41:12;17.70;;;14.60;;
14768;SDS011;7476;49.404;11.152;2023-03-20T05:43:39;12.20;;;10.90;;
14768;SDS011;7476;49.404;11.152;2023-03-20T05:46:05;13.50;;;10.43;;
14768;SDS011;7476;49.404;11.152;2023-03-20T05:48:32;11.73;;;9.50;;
14768;SDS011;7476;49.404;11.152;2023-03-20T05:50:59;10.97;;;9.77;;
14768;SDS011;7476;49.404;11.152;2023-03-20T05:53:27;11.17;;;9.50;;
14768;SDS011;7476;49.404;11.152;2023-03-20T05:55:54;11.47;;;9.10;;
14768;SDS011;7476;49.404;11.152;2023-03-20T05:58:20;11.20;;;9.70;;
14768;SDS011;7476;49.404;11.152;2023-03-20T06:00:47;12.07;;;10.10;;
14768;SDS011;7476;49.404;11.152;2023-03-20T06:03:14;12.73;;;10.30;;
14768;SDS011;7476;49.404;11.152;2023-03-20T06:05:41;13.83;;;11.60;;
14768;SDS011;7476;49.404;11.152;2023-03-20T06:08:09;12.17;;;10.97;;
14768;SDS011;7476;49.404;11.152;2023-03-20T06:10:37;11.20;;;10.00;;
14768;SDS011;7476;49.404;11.152;2023-03-20T06:13:03;10.07;;;9.07;;
14768;SDS011;7476;49.404;11.152;2023-03-20T06:15:30;13.67;;;11.17;;
14768;SDS011;7476;49.404;11.152;2023-03-20T06:17:57;11.93;;;10.63;;
14768;SDS011;7476;49.404;11.152;2023-03-20T06:20:24;11.20;;;10.00;;
14768;SDS011;7476;49.404;11.152;2023-03-20T06:22:51;12.23;;;10.30;;
14768;SDS011;7476;49.404;11.152;2023-03-20T06:25:18;15.03;;;12.70;;
14768;SDS011;7476;49.404;11.152;2023-03-20T06:27:46;14.30;;;11.30;;
14768;SDS011;7476;49.404;11.152;2023-03-20T06:30:13;15.53;;;12.87;;
14768;SDS011;7476;49.404;11.152;2023-03-20T06:32:41;17.90;;;14.33;;
14768;SDS011;7476;49.404;11.152;2023-03-20T06:35:08;15.83;;;14.10;;
14768;SDS011;7476;49.404;11.152;2023-03-20T06:37:35;18.53;;;15.73;;
14768;SDS011;7476;49.404;11.152;2023-03-20T06:40:02;20.37;;;16.53;;
14768;SDS011;7476;49.404;11.152;2023-03-20T06:42:30;18.10;;;15.20;;
14768;SDS011;7476;49.404;11.152;2023-03-20T06:44:58;17.40;;;14.87;;
14768;SDS011;7476;49.404;11.152;2023-03-20T06:47:25;16.70;;;14.10;;
14768;SDS011;7476;49.404;11.152;2023-03-20T06:49:51;19.50;;;15.87;;
14768;SDS011;7476;49.404;11.152;2023-03-20T06:52:18;17.10;;;14.70;;
14768;SDS011;7476;49.404;11.152;2023-03-20T06:54:46;14.70;;;13.10;;
14768;SDS011;7476;49.404;11.152;2023-03-20T06:57:15;16.33;;;14.07;;
14768;SDS011;7476;49.404;11.152;2023-03-20T06:59:42;17.60;;;15.07;;
14768;SDS011;7476;49.404;11.152;2023-03-20T07:02:10;20.67;;;16.80;;
14768;SDS011;7476;49.404;11.152;2023-03-20T07:04:37;19.70;;;16.00;;
14768;SDS011;7476;49.404;11.152;2023-03-20T07:07:04;21.07;;;17.10;;
14768;SDS011;7476;49.404;11.152;2023-03-20T07:09:31;23.27;;;16.73;;
14768;SDS011;7476;49.404;11.152;2023-03-20T07:11:58;18.37;;;15.87;;
14768;SDS011;7476;49.404;11.152;2023-03-20T07:14:25;21.93;;;17.03;;
14768;SDS011;7476;49.404;11.152;2023-03-20T07:16:51;20.47;;;16.70;;
14768;SDS011;7476;49.404;11.152;2023-03-20T07:19:20;20.63;;;17.17;;
14768;SDS011;7476;49.404;11.152;2023-03-20T07:21:46;20.53;;;16.83;;
14768;SDS011;7476;49.404;11.152;2023-03-20T07:24:13;22.43;;;17.70;;
14768;SDS011;7476;49.404;11.152;2023-03-20T07:26:40;21.73;;;17.53;;
14768;SDS011;7476;49.404;11.152;2023-03-20T07:29:06;21.53;;;17.30;;
14768;SDS011;7476;49.404;11.152;2023-03-20T07:31:33;19.90;;;17.10;;
14768;SDS011;7476;49.404;11.152;2023-03-20T07:34:00;18.10;;;15.70;;
14768;SDS011;7476;49.404;11.152;2023-03-20T07:36:28;17.73;;;15.23;;
14768;SDS011;7476;49.404;11.152;2023-03-20T07:38:54;18.60;;;15.87;;
14768;SDS011;7476;49.404;11.152;2023-03-20T07:41:21;16.33;;;14.37;;
14768;SDS011;7476;49.404;11.152;2023-03-20T07:43:48;16.20;;;14.53;;
14768;SDS011;7476;49.404;11.152;2023-03-20T07:46:15;13.37;;;11.97;;
14768;SDS011;7476;49.404;11.152;2023-03-20T07:48:42;14.20;;;12.80;;
14768;SDS011;7476;49.404;11.152;2023-03-20T07:51:08;14.37;;;12.87;;
14768;SDS011;7476;49.404;11.152;2023-03-20T07:53:36;13.67;;;12.00;;
14768;SDS011;7476;49.404;11.152;2023-03-20T07:56:03;12.60;;;11.27;;
14768;SDS011;7476;49.404;11.152;2023-03-20T07:58:30;12.67;;;10.77;;
14768;SDS011;7476;49.404;11.152;2023-03-20T08:00:57;10.87;;;9.80;;
14768;SDS011;7476;49.404;11.152;2023-03-20T08:03:23;10.93;;;9.77;;
14768;SDS011;7476;49.404;11.152;2023-03-20T08:05:51;11.03;;;9.33;;
14768;SDS011;7476;49.404;11.152;2023-03-20T08:08:18;9.70;;;8.50;;
14768;SDS011;7476;49.404;11.152;2023-03-20T08:10:46;7.60;;;6.90;;
14768;SDS011;7476;49.404;11.152;2023-03-20T08:13:13;8.17;;;7.37;;
14768;SDS011;7476;49.404;11.152;2023-03-20T08:15:40;7.87;;;7.17;;
14768;SDS011;7476;49.404;11.152;2023-03-20T08:18:06;6.73;;;6.13;;
14768;SDS011;7476;49.404;11.152;2023-03-20T08:20:33;6.40;;;5.90;;
14768;SDS011;7476;49.404;11.152;2023-03-20T08:23:00;5.60;;;5.10;;
14768;SDS011;7476;49.404;11.152;2023-03-20T08:25:26;5.73;;;5.20;;
14768;SDS011;7476;49.404;11.152;2023-03-20T08:27:58;5.10;;;4.70;;
14768;SDS011;7476;49.404;11.152;2023-03-20T08:30:25;5.30;;;4.80;;
14768;SDS011;7476;49.404;11.152;2023-03-20T08:32:52;4.67;;;4.20;;
14768;SDS011;7476;49.404;11.152;2023-03-20T08:35:19;4.33;;;3.93;;
14768;SDS011;7476;49.404;11.152;2023-03-20T08:37:45;4.43;;;4.03;;
14768;SDS011;7476;49.404;11.152;2023-03-20T08:40:12;4.30;;;3.90;;
14768;SDS011;7476;49.404;11.152;2023-03-20T08:42:39;5.53;;;3.70;;
14768;SDS011;7476;49.404;11.152;2023-03-20T08:45:08;5.90;;;4.00;;
14768;SDS011;7476;49.404;11.152;2023-03-20T08:47:35;3.80;;;3.50;;
14768;SDS011;7476;49.404;11.152;2023-03-20T08:50:01;3.80;;;3.40;;
14768;SDS011;7476;49.404;11.152;2023-03-20T08:52:28;4.37;;;3.60;;
14768;SDS011;7476;49.404;11.152;2023-03-20T08:54:55;4.57;;;3.60;;
14768;SDS011;7476;49.404;11.152;2023-03-20T08:57:22;3.93;;;3.60;;
14768;SDS011;7476;49.404;11.152;2023-03-20T08:59:48;3.33;;;3.03;;
14768;SDS011;7476;49.404;11.152;2023-03-20T09:02:16;4.27;;;3.53;;
14768;SDS011;7476;49.404;11.152;2023-03-20T09:04:43;3.80;;;3.50;;
14768;SDS011;7476;49.404;11.152;2023-03-20T09:07:09;4.47;;;3.47;;
14768;SDS011;7476;49.404;11.152;2023-03-20T09:09:36;4.67;;;3.50;;
14768;SDS011;7476;49.404;11.152;2023-03-20T09:12:03;5.03;;;3.77;;
14768;SDS011;7476;49.404;11.152;2023-03-20T09:14:30;4.13;;;3.40;;
14768;SDS011;7476;49.404;11.152;2023-03-20T09:16:56;4.17;;;3.77;;
14768;SDS011;7476;49.404;11.152;2023-03-20T09:19:24;6.07;;;3.80;;
14768;SDS011;7476;49.404;11.152;2023-03-20T09:21:51;4.40;;;4.00;;
14768;SDS011;7476;49.404;11.152;2023-03-20T09:24:18;4.73;;;3.90;;
14768;SDS011;7476;49.404;11.152;2023-03-20T09:26:44;4.20;;;3.80;;
14768;SDS011;7476;49.404;11.152;2023-03-20T09:29:11;4.70;;;4.00;;
14768;SDS011;7476;49.404;11.152;2023-03-20T09:31:38;3.20;;;2.90;;
14768;SDS011;7476;49.404;11.152;2023-03-20T09:34:04;3.50;;;3.20;;
14768;SDS011;7476;49.404;11.152;2023-03-20T09:36:32;3.50;;;3.00;;
14768;SDS011;7476;49.404;11.152;2023-03-20T09:38:59;3.30;;;3.00;;
14768;SDS011;7476;49.404;11.152;2023-03-20T09:41:26;3.40;;;3.10;;
14768;SDS011;7476;49.404;11.152;2023-03-20T09:44:08;4.37;;;2.87;;
14768;SDS011;7476;49.404;11.152;2023-03-20T09:46:48;4.23;;;3.70;;
14768;SDS011;7476;49.404;11.152;2023-03-20T09:49:35;3.13;;;2.83;;
14768;SDS011;7476;49.404;11.152;2023-03-20T09:52:13;3.17;;;2.80;;
14768;SDS011;7476;49.404;11.152;2023-03-20T09:54:46;3.77;;;2.90;;
14768;SDS011;7476;49.404;11.152;2023-03-20T09:57:16;3.07;;;2.77;;
14768;SDS011;7476;49.404;11.152;2023-03-20T09:59:47;3.77;;;3.03;;
14768;SDS011;7476;49.404;11.152;2023-03-20T10:02:16;3.07;;;2.77;;
14768;SDS011;7476;49.404;11.152;2023-03-20T10:04:48;4.13;;;3.43;;
14768;SDS011;7476;49.404;11.152;2023-03-20T10:07:19;3.50;;;2.80;;
14768;SDS011;7476;49.404;11.152;2023-03-20T10:09:47;3.20;;;2.90;;
14768;SDS011;7476;49.404;11.152;2023-03-20T10:12:18;3.93;;;3.00;;
14768;SDS011;7476;49.404;11.152;2023-03-20T10:14:58;3.13;;;2.80;;
14768;SDS011;7476;49.404;11.152;2023-03-20T10:17:32;3.63;;;3.00;;
14768;SDS011;7476;49.404;11.152;2023-03-20T10:20:12;4.30;;;3.00;;
14768;SDS011;7476;49.404;11.152;2023-03-20T10:22:48;3.33;;;3.03;;
14768;SDS011;7476;49.404;11.152;2023-03-20T10:25:21;3.20;;;2.90;;
14768;SDS011;7476;49.404;11.152;2023-03-20T10:27:51;3.13;;;2.80;;
14768;SDS011;7476;49.404;11.152;2023-03-20T10:30:32;3.87;;;3.17;;
14768;SDS011;7476;49.404;11.152;2023-03-20T10:33:12;3.30;;;3.00;;
14768;SDS011;7476;49.404;11.152;2023-03-20T10:35:52;4.53;;;3.03;;
14768;SDS011;7476;49.404;11.152;2023-03-20T10:38:32;4.47;;;2.90;;
14768;SDS011;7476;49.404;11.152;2023-03-20T10:41:07;3.77;;;3.33;;
14768;SDS011;7476;49.404;11.152;2023-03-20T10:43:37;3.97;;;3.13;;
14768;SDS011;7476;49.404;11.152;2023-03-20T10:46:07;4.03;;;3.63;;
14768;SDS011;7476;49.404;11.152;2023-03-20T10:48:38;4.10;;;3.37;;
14768;SDS011;7476;49.404;11.152;2023-03-20T10:51:08;3.73;;;3.30;;
14768;SDS011;7476;49.404;11.152;2023-03-20T10:53:41;3.83;;;3.47;;
14768;SDS011;7476;49.404;11.152;2023-03-20T10:56:14;3.87;;;3.47;;
14768;SDS011;7476;49.404;11.152;2023-03-20T10:58:56;3.50;;;3.10;;
14768;SDS011;7476;49.404;11.152;2023-03-20T11:01:27;3.83;;;2.90;;
14768;SDS011;7476;49.404;11.152;2023-03-20T11:03:54;3.83;;;3.50;;
14768;SDS011;7476;49.404;11.152;2023-03-20T11:06:21;3.77;;;3.10;;
14768;SDS011;7476;49.404;11.152;2023-03-20T11:08:53;5.53;;;3.20;;
14768;SDS011;7476;49.404;11.152;2023-03-20T11:11:21;3.53;;;3.23;;
14768;SDS011;7476;49.404;11.152;2023-03-20T11:13:48;3.73;;;3.20;;
14768;SDS011;7476;49.404;11.152;2023-03-20T11:16:17;2.80;;;2.60;;
14768;SDS011;7476;49.404;11.152;2023-03-20T11:18:47;3.57;;;2.80;;
14768;SDS011;7476;49.404;11.152;2023-03-20T11:21:17;3.57;;;2.80;;
14768;SDS011;7476;49.404;11.152;2023-03-20T11:23:46;3.03;;;2.77;;
14768;SDS011;7476;49.404;11.152;2023-03-20T11:26:16;3.20;;;2.90;;
14768;SDS011;7476;49.404;11.152;2023-03-20T11:28:49;4.23;;;2.97;;
14768;SDS011;7476;49.404;11.152;2023-03-20T11:31:18;3.10;;;2.80;;
14768;SDS011;7476;49.404;11.152;2023-03-20T11:33:51;3.27;;;2.97;;
14768;SDS011;7476;49.404;11.152;2023-03-20T11:36:26;3.40;;;3.10;;
14768;SDS011;7476;49.404;11.152;2023-03-20T11:38:57;3.40;;;3.10;;
14768;SDS011;7476;49.404;11.152;2023-03-20T11:41:29;2.93;;;2.67;;
14768;SDS011;7476;49.404;11.152;2023-03-20T11:43:55;4.57;;;3.30;;
14768;SDS011;7476;49.404;11.152;2023-03-20T11:46:22;3.17;;;2.63;;
14768;SDS011;7476;49.404;11.152;2023-03-20T11:49:03;2.90;;;2.60;;
14768;SDS011;7476;49.404;11.152;2023-03-20T11:51:32;2.87;;;2.43;;
14768;SDS011;7476;49.404;11.152;2023-03-20T11:54:00;2.47;;;2.23;;
14768;SDS011;7476;49.404;11.152;2023-03-20T11:56:30;2.93;;;2.63;;
14768;SDS011;7476;49.404;11.152;2023-03-20T11:59:00;3.80;;;2.37;;
14768;SDS011;7476;49.404;11.152;2023-03-20T12:01:41;2.97;;;2.70;;
14768;SDS011;7476;49.404;11.152;2023-03-20T12:04:11;3.87;;;2.97;;
14768;SDS011;7476;49.404;11.152;2023-03-20T12:06:41;3.20;;;2.87;;
14768;SDS011;7476;49.404;11.152;2023-03-20T12:09:17;3.97;;;3.00;;
14768;SDS011;7476;49.404;11.152;2023-03-20T12:11:54;3.37;;;3.07;;
14768;SDS011;7476;49.404;11.152;2023-03-20T12:14:26;3.53;;;3.00;;
14768;SDS011;7476;49.404;11.152;2023-03-20T12:17:01;3.60;;;3.30;;
14768;SDS011;7476;49.404;11.152;2023-03-20T12:19:50;4.37;;;3.17;;
14768;SDS011;7476;49.404;11.152;2023-03-20T12:22:21;3.07;;;2.77;;
14768;SDS011;7476;49.404;11.152;2023-03-20T12:24:53;3.17;;;2.87;;
14768;SDS011;7476;49.404;11.152;2023-03-20T12:27:28;3.03;;;2.73;;
14768;SDS011;7476;49.404;11.152;2023-03-20T12:29:59;2.80;;;2.60;;
14768;SDS011;7476;49.404;11.152;2023-03-20T12:32:32;3.37;;;2.57;;
14768;SDS011;7476;49.404;11.152;2023-03-20T12:35:08;2.50;;;2.30;;
14768;SDS011;7476;49.404;11.152;2023-03-20T12:37:40;3.40;;;2.50;;
14768;SDS011;7476;49.404;11.152;2023-03-20T12:40:10;2.50;;;2.30;;
14768;SDS011;7476;49.404;11.152;2023-03-20T12:42:42;3.40;;;2.73;;
14768;SDS011;7476;49.404;11.152;2023-03-20T12:45:22;3.23;;;2.60;;
14768;SDS011;7476;49.404;11.152;2023-03-20T12:48:00;3.20;;;2.90;;
14768;SDS011;7476;49.404;11.152;2023-03-20T12:50:40;3.30;;;2.67;;
14768;SDS011;7476;49.404;11.152;2023-03-20T12:53:28;3.23;;;2.53;;
14768;SDS011;7476;49.404;11.152;2023-03-20T12:56:10;2.60;;;2.40;;
14768;SDS011;7476;49.404;11.152;2023-03-20T12:58:49;3.00;;;2.70;;
14768;SDS011;7476;49.404;11.152;2023-03-20T13:01:21;3.07;;;2.77;;
14768;SDS011;7476;49.404;11.152;2023-03-20T13:04:04;3.00;;;2.70;;
14768;SDS011;7476;49.404;11.152;2023-03-20T13:06:48;3.87;;;2.67;;
14768;SDS011;7476;49.404;11.152;2023-03-20T13:09:31;2.80;;;2.50;;
14768;SDS011;7476;49.404;11.152;2023-03-20T13:12:17;3.13;;;2.60;;
14768;SDS011;7476;49.404;11.152;2023-03-20T13:14:53;3.90;;;2.50;;
14768;SDS011;7476;49.404;11.152;2023-03-20T13:17:29;3.40;;;2.87;;
14768;SDS011;7476;49.404;11.152;2023-03-20T13:20:08;3.50;;;2.77;;
14768;SDS011;7476;49.404;11.152;2023-03-20T13:22:47;3.13;;;2.83;;
14768;SDS011;7476;49.404;11.152;2023-03-20T13:25:27;4.63;;;3.00;;
14768;SDS011;7476;49.404;11.152;2023-03-20T13:28:08;3.20;;;2.90;;
14768;SDS011;7476;49.404;11.152;2023-03-20T13:30:43;3.50;;;3.20;;
14768;SDS011;7476;49.404;11.152;2023-03-20T13:33:21;4.03;;;3.40;;
14768;SDS011;7476;49.404;11.152;2023-03-20T13:35:56;4.83;;;3.03;;
14768;SDS011;7476;49.404;11.152;2023-03-20T13:38:29;4.97;;;3.50;;
14768;SDS011;7476;49.404;11.152;2023-03-20T13:41:01;4.70;;;3.20;;
14768;SDS011;7476;49.404;11.152;2023-03-20T13:43:30;3.30;;;3.00;;
14768;SDS011;7476;49.404;11.152;2023-03-20T13:46:02;3.47;;;3.10;;
14768;SDS011;7476;49.404;11.152;2023-03-20T13:48:33;3.30;;;3.00;;
14768;SDS011;7476;49.404;11.152;2023-03-20T13:51:04;3.73;;;3.43;;
14768;SDS011;7476;49.404;11.152;2023-03-20T13:53:40;5.50;;;3.40;;
14768;SDS011;7476;49.404;11.152;2023-03-20T13:56:15;4.17;;;2.93;;
14768;SDS011;7476;49.404;11.152;2023-03-20T13:58:58;3.70;;;3.40;;
14768;SDS011;7476;49.404;11.152;2023-03-20T14:01:42;4.27;;;3.37;;
14768;SDS011;7476;49.404;11.152;2023-03-20T14:04:16;3.57;;;3.27;;
14768;SDS011;7476;49.404;11.152;2023-03-20T14:06:48;3.60;;;3.00;;
14768;SDS011;7476;49.404;11.152;2023-03-20T14:09:26;3.90;;;3.27;;
14768;SDS011;7476;49.404;11.152;2023-03-20T14:11:57;3.50;;;3.20;;
14768;SDS011;7476;49.404;11.152;2023-03-20T14:14:27;5.40;;;3.30;;
14768;SDS011;7476;49.404;11.152;2023-03-20T14:17:05;3.67;;;3.20;;
14768;SDS011;7476;49.404;11.152;2023-03-20T14:19:38;3.53;;;3.20;;
14768;SDS011;7476;49.404;11.152;2023-03-20T14:22:04;3.60;;;3.20;;
14768;SDS011;7476;49.404;11.152;2023-03-20T14:24:34;3.97;;;2.90;;
14768;SDS011;7476;49.404;11.152;2023-03-20T14:27:02;3.50;;;2.83;;
14768;SDS011;7476;49.404;11.152;2023-03-20T14:29:31;3.20;;;2.73;;
14768;SDS011;7476;49.404;11.152;2023-03-20T14:35:00;3.60;;;3.00;;
14768;SDS011;7476;49.404;11.152;2023-03-20T14:37:55;3.43;;;3.00;;
14768;SDS011;7476;49.404;11.152;2023-03-20T14:40:29;4.90;;;3.13;;
14768;SDS011;7476;49.404;11.152;2023-03-20T14:43:00;3.43;;;3.13;;
14768;SDS011;7476;49.404;11.152;2023-03-20T14:45:30;3.73;;;3.33;;
14768;SDS011;7476;49.404;11.152;2023-03-20T14:48:13;4.00;;;3.60;;
14768;SDS011;7476;49.404;11.152;2023-03-20T14:50:51;4.77;;;3.13;;
14768;SDS011;7476;49.404;11.152;2023-03-20T14:53:28;3.90;;;3.37;;
14768;SDS011;7476;49.404;11.152;2023-03-20T14:56:00;4.37;;;3.57;;
14768;SDS011;7476;49.404;11.152;2023-03-20T14:58:51;4.17;;;3.07;;
14768;SDS011;7476;49.404;11.152;2023-03-20T15:01:26;4.10;;;3.70;;
14768;SDS011;7476;49.404;11.152;2023-03-20T15:04:07;4.43;;;3.43;;
14768;SDS011;7476;49.404;11.152;2023-03-20T15:06:41;4.40;;;4.00;;
14768;SDS011;7476;49.404;11.152;2023-03-20T15:09:12;4.03;;;3.50;;
14768;SDS011;7476;49.404;11.152;2023-03-20T15:11:39;3.60;;;3.30;;
14768;SDS011;7476;49.404;11.152;2023-03-20T15:14:07;4.33;;;3.80;;